»·PEaware :: N2102W KPOC-KPSP

N2102W :: KPOC-KPSP

FLIGHT INFORMATION

Flight Status: Arrived
Operator: Privately registered:
United States
More flights under this callsign
Pilot: Eric G. (5941)
Aircraft: Cessna 525C Citation CJ4
(C25C)
More flights by this aircraft type
Origin: KPOC Brackett
United States
Destination: KPSP Palm Springs Intl
United States
More flights between these airports :: More routes between these airports
Route: +PRADO V16 PDZ V186 NIKKL V64 TRM
File this flight plan on PilotEdge
Remarks: NA
Altitude:
(Current/Filed)
13,000ft
Speed:
(Current/Filed)
250kts
Departed: 19-Sep-20 08:17 AM
Arrived: 19-Sep-20 08:44 AM
Distance/Time
Traveled:
6763nm/0:27
Distance/Time
To Go:
Arrived

Flight Plot

Page will automatically refresh every two minutes.

Flight plan parsing failed; only flown route is shown


Map Options




Map Legend


Flown Route
Filed Route
Departure Airport
Arrival Airport
Navaid (VOR, NDB)
Fix

Horizontal Profiles

Position Reports

Time Latitude Longitude Heading Altitude Ground
Speed
19-Sep-20 07:28 34.089903 -117.777767 183 1002ft 0kts
19-Sep-20 07:29 34.089903 -117.777767 183 1002ft 0kts
19-Sep-20 07:30 34.089993 -117.777761 183 1002ft 0kts
19-Sep-20 07:31 34.089993 -117.777761 183 1002ft 0kts
19-Sep-20 07:32 34.089993 -117.777761 183 1002ft 0kts
19-Sep-20 07:33 34.089993 -117.777761 183 1002ft 0kts
19-Sep-20 07:34 34.089993 -117.777761 183 1002ft 0kts
19-Sep-20 07:35 34.089993 -117.777761 183 1002ft 0kts
19-Sep-20 07:36 34.089993 -117.777761 183 1002ft 0kts
19-Sep-20 07:37 34.089993 -117.777761 183 1002ft 0kts
19-Sep-20 07:38 34.089993 -117.777761 183 1002ft 0kts
19-Sep-20 07:39 34.089993 -117.777761 183 1002ft 0kts
19-Sep-20 07:40 34.089993 -117.777761 183 1002ft 0kts
19-Sep-20 07:41 34.089993 -117.777761 183 1002ft 0kts
19-Sep-20 07:42 34.089993 -117.777761 183 1002ft 0kts
19-Sep-20 07:43 34.089993 -117.777761 183 1002ft 0kts
19-Sep-20 07:44 34.089993 -117.777761 183 1002ft 0kts
19-Sep-20 07:45 34.089993 -117.777761 183 1002ft 0kts
19-Sep-20 07:46 34.089993 -117.777761 183 1002ft 0kts
19-Sep-20 07:47 34.089993 -117.777761 183 1002ft 0kts
19-Sep-20 07:49 34.089993 -117.777761 183 1002ft 0kts
19-Sep-20 07:50 34.089993 -117.777761 183 1002ft 0kts
19-Sep-20 07:51 34.089993 -117.777761 183 1002ft 0kts
19-Sep-20 07:52 34.089993 -117.777761 183 1002ft 0kts
19-Sep-20 07:53 34.089993 -117.777761 183 1002ft 0kts
19-Sep-20 07:54 34.089993 -117.777761 183 1002ft 0kts
19-Sep-20 07:55 34.089993 -117.777761 183 1002ft 0kts
19-Sep-20 07:56 34.089993 -117.777761 183 1002ft 0kts
19-Sep-20 07:57 34.089993 -117.777761 183 1002ft 0kts
19-Sep-20 07:58 34.089993 -117.777761 183 1002ft 0kts
19-Sep-20 07:59 34.089993 -117.777761 183 1002ft 0kts
19-Sep-20 08:00 34.089993 -117.777761 183 1002ft 0kts
19-Sep-20 08:01 34.089993 -117.777761 183 1002ft 0kts
19-Sep-20 08:02 34.089993 -117.777761 183 1002ft 0kts
19-Sep-20 08:03 34.089993 -117.777761 183 1002ft 0kts
19-Sep-20 08:04 34.089993 -117.777761 183 1002ft 0kts
19-Sep-20 08:05 34.089993 -117.777761 183 1002ft 0kts
19-Sep-20 08:05 34.089993 -117.777761 183 1002ft 0kts
19-Sep-20 08:07 34.090090 -117.778473 359 1000ft 0kts
19-Sep-20 08:08 34.090090 -117.778473 359 1000ft 0kts
19-Sep-20 08:08 34.090090 -117.778473 359 1000ft 0kts
19-Sep-20 08:10 34.090090 -117.778473 359 1000ft 0kts
19-Sep-20 08:11 34.090090 -117.778473 359 1000ft 0kts
19-Sep-20 08:11 34.090420 -117.777653 94 1002ft 11kts
19-Sep-20 08:12 34.090454 -117.774649 11 1011ft 4kts
19-Sep-20 08:13 34.090520 -117.774641 4 1011ft 0kts
19-Sep-20 08:14 34.090520 -117.774641 4 1011ft 0kts
19-Sep-20 08:15 34.090994 -117.774928 273 1012ft 5kts
19-Sep-20 08:16 34.086605 -117.833062 223 2713ft 230kts
19-Sep-20 08:17 34.036453 -117.811093 143 3516ft 201kts
19-Sep-20 08:18 34.019221 -117.762387 120 4802ft 152kts
19-Sep-20 08:19 33.992516 -117.709648 123 6801ft 227kts
19-Sep-20 08:20 33.958340 -117.642395 121 8658ft 240kts
19-Sep-20 08:21 33.922728 -117.565847 120 8992ft 287kts
19-Sep-20 08:22 33.874020 -117.487292 141 8982ft 295kts
19-Sep-20 08:23 33.808247 -117.429856 147 8971ft 292kts
19-Sep-20 08:24 33.744621 -117.375927 133 10074ft 258kts
19-Sep-20 08:25 33.730878 -117.298847 95 11968ft 218kts
19-Sep-20 08:26 33.729694 -117.216240 94 12931ft 297kts
19-Sep-20 08:27 33.719885 -117.105248 101 12980ft 365kts
19-Sep-20 08:28 33.704850 -116.983208 101 12955ft 363kts
19-Sep-20 08:29 33.690206 -116.863880 101 12952ft 361kts
19-Sep-20 08:30 33.675383 -116.745161 101 12963ft 360kts
19-Sep-20 08:31 33.660487 -116.625829 101 12976ft 361kts
19-Sep-20 08:32 33.650999 -116.505771 95 12943ft 362kts
19-Sep-20 08:33 33.645211 -116.385611 96 12960ft 357kts
19-Sep-20 08:34 33.640320 -116.278078 96 11826ft 289kts
19-Sep-20 08:35 33.650932 -116.194466 33 10275ft 247kts
19-Sep-20 08:36 33.698337 -116.219545 278 6661ft 166kts
19-Sep-20 08:37 33.703781 -116.275983 273 5306ft 189kts
19-Sep-20 08:38 33.708818 -116.351778 287 3097ft 253kts
19-Sep-20 08:39 33.734871 -116.415293 312 3168ft 174kts
19-Sep-20 08:40 33.766860 -116.446635 318 1894ft 126kts
19-Sep-20 08:41 33.793804 -116.471949 320 1169ft 119kts
19-Sep-20 08:42 33.819424 -116.495631 322 528ft 113kts
19-Sep-20 08:43 33.830035 -116.504380 54 431ft 0kts
19-Sep-20 08:44 33.829624 -116.503717 148 429ft 11kts
19-Sep-20 08:45 33.826545 -116.501043 143 411ft 15kts
19-Sep-20 08:46 33.823578 -116.498042 88 404ft 8kts
19-Sep-20 08:47 33.823809 -116.497989 231 404ft 0kts
19-Sep-20 08:48 33.823809 -116.497989 231 404ft 0kts
19-Sep-20 08:49 33.823809 -116.497989 231 404ft 0kts
19-Sep-20 08:50 0.000408 0.013975 0 2ft 0kts
19-Sep-20 08:51 0.000407 0.013975 0 3ft 0kts
19-Sep-20 08:52 0.000407 0.013975 359 4ft 0kts
19-Sep-20 08:53 0.000408 0.013975 359 4ft 0kts

Navigation Log

Ident Type
Flight plan parsing failed, navigation log unavailable